Nara, Japan
Current Conditions -  °F | °C
As of 8:00 PM on Monday 24 Nov 2014 (Local Time) from RJOO Reporting Station
Clear Clear  
Wind Chill: 55°   Ceiling: Unl
Heat Index: 55°   Visibility: 6mi
Dew Point: 48°   Wind: 5mph
Humidity: 77%   Direction: 310°NW
Pressure: 30.06"   Gusts: NA
Location:  34.69°N, 135.83°E
Report Text: RJOO 241100Z 31004KT CAVOK 13/09 Q1018 RMK A3007
Loading
Personal Weather Stations






























Interactive Weather Map New forecast layout! Learn more

10-Day Weather Forecast

Advertisements
Track Severe Weather on mobile